createdAt,value
2018-06-16T00:00:35.091Z,247.50
2018-06-16T00:01:35.067Z,337.50
2018-06-16T00:02:35.064Z,315.00
2018-06-16T00:03:35.070Z,315.00
2018-06-16T00:04:35.096Z,45.00
2018-06-16T00:05:35.066Z,22.50
2018-06-16T00:06:35.213Z,45.00
2018-06-16T00:07:35.230Z,67.50
2018-06-16T00:08:35.147Z,22.50
2018-06-16T00:09:35.065Z,22.50
2018-06-16T00:10:35.064Z,22.50
2018-06-16T00:11:35.139Z,45.00
2018-06-16T00:12:35.137Z,22.50
2018-06-16T00:13:35.066Z,22.50
2018-06-16T00:14:35.017Z,22.50
2018-06-16T00:15:35.014Z,0.00
2018-06-16T00:16:35.127Z,22.50
2018-06-16T00:17:35.060Z,45.00
2018-06-16T00:18:35.059Z,22.50
2018-06-16T00:19:35.004Z,157.50
2018-06-16T00:20:35.082Z,22.50
2018-06-16T00:21:35.131Z,67.50
2018-06-16T00:22:35.134Z,22.50
2018-06-16T00:23:35.046Z,157.50
2018-06-16T00:24:35.074Z,22.50
2018-06-16T00:25:35.147Z,45.00
2018-06-16T00:26:35.154Z,45.00
2018-06-16T00:27:35.102Z,45.00
2018-06-16T00:28:35.082Z,22.50
2018-06-16T00:29:35.146Z,22.50
2018-06-16T00:30:35.082Z,22.50
2018-06-16T00:31:35.146Z,180.00
2018-06-16T00:32:35.148Z,337.50
2018-06-16T00:33:35.149Z,337.50
2018-06-16T00:34:35.087Z,247.50
2018-06-16T00:35:35.073Z,247.50
2018-06-16T00:36:35.134Z,22.50
2018-06-16T00:37:35.146Z,22.50
2018-06-16T00:38:35.147Z,45.00
2018-06-16T00:39:35.089Z,67.50
2018-06-16T00:40:35.125Z,45.00
2018-06-16T00:41:35.121Z,45.00
2018-06-16T00:42:35.183Z,22.50
2018-06-16T00:43:35.192Z,22.50
2018-06-16T00:44:35.147Z,22.50
2018-06-16T00:45:35.155Z,45.00
2018-06-16T00:46:35.095Z,45.00
2018-06-16T00:47:35.077Z,22.50
2018-06-16T00:48:35.145Z,112.50
2018-06-16T00:49:35.153Z,45.00
2018-06-16T00:50:35.120Z,180.00
2018-06-16T00:51:35.062Z,90.00
2018-06-16T00:52:35.157Z,22.50
2018-06-16T00:53:35.031Z,22.50
2018-06-16T00:54:35.153Z,22.50
2018-06-16T00:55:35.038Z,22.50
2018-06-16T00:56:35.157Z,22.50
2018-06-16T00:57:35.155Z,22.50
2018-06-16T00:58:35.083Z,22.50
2018-06-16T00:59:35.163Z,67.50
2018-06-16T01:00:35.088Z,90.00
2018-06-16T01:01:35.162Z,90.00
2018-06-16T01:02:35.160Z,90.00
2018-06-16T01:03:35.089Z,90.00
2018-06-16T01:04:35.073Z,45.00
2018-06-16T01:05:35.085Z,45.00
2018-06-16T01:06:35.166Z,45.00
2018-06-16T01:07:35.065Z,45.00
2018-06-16T01:08:35.109Z,45.00
2018-06-16T01:09:35.070Z,45.00
2018-06-16T01:10:35.148Z,45.00
2018-06-16T01:11:35.151Z,45.00
2018-06-16T01:12:35.197Z,45.00
2018-06-16T01:13:35.198Z,22.50
2018-06-16T01:14:35.139Z,45.00
2018-06-16T01:15:35.129Z,45.00
2018-06-16T01:16:35.073Z,67.50
2018-06-16T01:17:35.203Z,67.50
2018-06-16T01:18:35.130Z,67.50
2018-06-16T01:19:35.117Z,45.00
2018-06-16T01:20:35.129Z,45.00
2018-06-16T01:21:35.221Z,45.00
2018-06-16T01:22:35.144Z,45.00
2018-06-16T01:23:35.098Z,67.50
2018-06-16T01:24:35.119Z,45.00
2018-06-16T01:25:35.113Z,22.50
2018-06-16T01:26:35.182Z,22.50
2018-06-16T01:27:35.149Z,22.50
2018-06-16T01:28:35.188Z,22.50
2018-06-16T01:29:35.179Z,22.50
2018-06-16T01:30:35.124Z,0.00
2018-06-16T01:31:35.186Z,157.50
2018-06-16T01:32:35.124Z,180.00
2018-06-16T01:33:35.122Z,157.50
2018-06-16T01:34:35.172Z,67.50
2018-06-16T01:35:35.091Z,45.00
2018-06-16T01:36:35.162Z,22.50
2018-06-16T01:37:35.229Z,22.50
2018-06-16T01:38:35.088Z,22.50
2018-06-16T01:39:35.164Z,90.00
2018-06-16T01:40:35.188Z,22.50
2018-06-16T01:41:35.221Z,22.50
2018-06-16T01:42:35.190Z,22.50
2018-06-16T01:43:35.252Z,45.00
2018-06-16T01:44:35.219Z,45.00
2018-06-16T01:45:35.095Z,45.00
2018-06-16T01:46:35.134Z,67.50
2018-06-16T01:47:35.169Z,90.00
2018-06-16T01:48:35.176Z,67.50
2018-06-16T01:49:35.231Z,45.00
2018-06-16T01:50:35.241Z,45.00
2018-06-16T01:51:35.118Z,45.00
2018-06-16T01:52:35.229Z,45.00
2018-06-16T01:53:35.223Z,45.00
2018-06-16T01:54:35.122Z,45.00
2018-06-16T01:55:35.150Z,45.00
2018-06-16T01:56:35.118Z,22.50
2018-06-16T01:57:35.057Z,22.50
2018-06-16T01:58:35.106Z,22.50
2018-06-16T01:59:35.059Z,22.50
2018-06-16T02:00:35.066Z,0.00
2018-06-16T02:01:35.109Z,22.50
2018-06-16T02:02:35.107Z,45.00
2018-06-16T02:03:35.065Z,45.00
2018-06-16T02:04:35.204Z,135.00
2018-06-16T02:05:35.236Z,112.50
2018-06-16T02:06:35.204Z,112.50
2018-06-16T02:07:35.132Z,135.00
2018-06-16T02:08:35.132Z,112.50
2018-06-16T02:09:35.130Z,90.00
2018-06-16T02:10:35.179Z,112.50
2018-06-16T02:11:35.266Z,90.00
2018-06-16T02:12:35.287Z,90.00
2018-06-16T02:13:35.152Z,90.00
2018-06-16T02:14:35.130Z,90.00
2018-06-16T02:15:35.213Z,90.00
2018-06-16T02:16:35.212Z,67.50
2018-06-16T02:17:35.174Z,90.00
2018-06-16T02:18:35.237Z,90.00
2018-06-16T02:19:35.215Z,90.00
2018-06-16T02:20:35.139Z,67.50
2018-06-16T02:21:35.124Z,135.00
2018-06-16T02:22:35.136Z,112.50
2018-06-16T02:23:35.219Z,67.50
2018-06-16T02:24:35.167Z,67.50
2018-06-16T02:25:35.060Z,67.50
2018-06-16T02:26:35.165Z,112.50
2018-06-16T02:27:35.153Z,45.00
2018-06-16T02:28:35.088Z,45.00
2018-06-16T02:29:35.128Z,22.50
2018-06-16T02:30:35.129Z,22.50
2018-06-16T02:31:35.040Z,22.50
2018-06-16T02:32:35.044Z,22.50
2018-06-16T02:33:35.164Z,22.50
2018-06-16T02:34:35.229Z,22.50
2018-06-16T02:35:35.230Z,22.50
2018-06-16T02:36:35.163Z,247.50
2018-06-16T02:37:35.230Z,202.50
2018-06-16T02:38:35.183Z,157.50
2018-06-16T02:39:35.236Z,22.50
2018-06-16T02:40:35.164Z,247.50
2018-06-16T02:41:35.198Z,337.50
2018-06-16T02:42:35.243Z,22.50
2018-06-16T02:43:35.237Z,0.00
2018-06-16T02:44:35.263Z,22.50
2018-06-16T02:45:35.209Z,45.00
2018-06-16T02:46:35.207Z,22.50
2018-06-16T02:47:35.196Z,22.50
2018-06-16T02:48:35.267Z,135.00
2018-06-16T02:49:35.271Z,180.00
2018-06-16T02:50:35.342Z,157.50
2018-06-16T02:51:35.315Z,90.00
2018-06-16T02:52:35.279Z,90.00
2018-06-16T02:53:35.238Z,90.00
2018-06-16T02:54:35.223Z,67.50
2018-06-16T02:55:35.260Z,45.00
2018-06-16T02:56:35.260Z,45.00
2018-06-16T02:57:35.184Z,22.50
2018-06-16T02:58:35.285Z,112.50
2018-06-16T02:59:35.210Z,67.50
2018-06-16T03:00:35.221Z,67.50
2018-06-16T03:01:35.184Z,45.00
2018-06-16T03:02:35.281Z,22.50
2018-06-16T03:03:35.231Z,45.00
2018-06-16T03:04:35.135Z,67.50
2018-06-16T03:05:35.249Z,67.50
2018-06-16T03:06:35.181Z,180.00
2018-06-16T03:07:35.251Z,112.50
2018-06-16T03:08:35.182Z,67.50
2018-06-16T03:09:35.250Z,90.00
2018-06-16T03:10:35.256Z,90.00
2018-06-16T03:11:35.255Z,135.00
2018-06-16T03:12:35.185Z,202.50
2018-06-16T03:13:35.191Z,180.00
2018-06-16T03:14:35.179Z,157.50
2018-06-16T03:15:35.197Z,180.00
2018-06-16T03:16:35.237Z,157.50
2018-06-16T03:17:35.174Z,180.00
2018-06-16T03:18:35.159Z,180.00
2018-06-16T03:19:35.227Z,112.50
2018-06-16T03:20:35.259Z,135.00
2018-06-16T03:21:35.233Z,112.50
2018-06-16T03:22:35.162Z,90.00
2018-06-16T03:23:35.306Z,90.00
2018-06-16T03:24:35.186Z,90.00
2018-06-16T03:25:35.197Z,90.00
2018-06-16T03:26:35.254Z,135.00
2018-06-16T03:27:35.257Z,135.00
2018-06-16T03:28:35.252Z,112.50
2018-06-16T03:29:35.255Z,135.00
2018-06-16T03:30:35.197Z,112.50
2018-06-16T03:31:35.134Z,112.50
2018-06-16T03:32:35.203Z,135.00
2018-06-16T03:33:35.255Z,112.50
2018-06-16T03:34:35.266Z,157.50
2018-06-16T03:35:35.217Z,112.50
2018-06-16T03:36:35.272Z,112.50
2018-06-16T03:37:35.173Z,112.50
2018-06-16T03:38:35.188Z,90.00
2018-06-16T03:39:35.231Z,135.00
2018-06-16T03:40:35.230Z,90.00
2018-06-16T03:41:35.273Z,90.00
2018-06-16T03:42:35.308Z,90.00
2018-06-16T03:43:35.248Z,90.00
2018-06-16T03:44:35.237Z,112.50
2018-06-16T03:45:35.244Z,112.50
2018-06-16T03:46:35.175Z,157.50
2018-06-16T03:47:35.311Z,112.50
2018-06-16T03:48:35.278Z,112.50
2018-06-16T03:49:35.234Z,157.50
2018-06-16T03:50:35.241Z,90.00
2018-06-16T03:51:35.185Z,112.50
2018-06-16T03:52:35.238Z,112.50
2018-06-16T03:53:35.246Z,90.00
2018-06-16T03:54:35.270Z,112.50
2018-06-16T03:55:35.259Z,90.00
2018-06-16T03:56:35.302Z,135.00
2018-06-16T03:57:35.312Z,157.50
2018-06-16T03:58:35.304Z,157.50
2018-06-16T03:59:35.321Z,112.50
2018-06-16T04:00:35.325Z,112.50
2018-06-16T04:01:35.300Z,135.00
2018-06-16T04:02:35.285Z,135.00
2018-06-16T04:03:35.237Z,112.50
2018-06-16T04:04:35.244Z,90.00
2018-06-16T04:05:35.285Z,90.00
2018-06-16T04:06:35.263Z,90.00
2018-06-16T04:07:35.204Z,90.00
2018-06-16T04:08:35.321Z,135.00
2018-06-16T04:09:35.227Z,135.00
2018-06-16T04:10:35.272Z,90.00
2018-06-16T04:11:35.211Z,112.50
2018-06-16T04:12:35.290Z,135.00
2018-06-16T04:13:35.265Z,135.00
2018-06-16T04:14:35.321Z,112.50
2018-06-16T04:15:35.294Z,157.50
2018-06-16T04:16:35.296Z,135.00
2018-06-16T04:17:35.228Z,157.50
2018-06-16T04:18:35.294Z,135.00
2018-06-16T04:19:35.226Z,135.00
2018-06-16T04:20:35.300Z,112.50
2018-06-16T04:21:35.247Z,135.00
2018-06-16T04:22:35.317Z,135.00
2018-06-16T04:23:35.233Z,135.00
2018-06-16T04:24:35.231Z,157.50
2018-06-16T04:25:35.302Z,112.50
2018-06-16T04:26:35.234Z,90.00
2018-06-16T04:27:35.303Z,135.00
2018-06-16T04:28:35.237Z,112.50
2018-06-16T04:29:35.239Z,135.00
2018-06-16T04:30:35.303Z,135.00
2018-06-16T04:31:35.235Z,157.50
2018-06-16T04:32:35.238Z,157.50
2018-06-16T04:33:35.240Z,112.50
2018-06-16T04:34:35.324Z,135.00
2018-06-16T04:35:35.325Z,112.50
2018-06-16T04:36:35.330Z,135.00
2018-06-16T04:37:35.263Z,112.50
2018-06-16T04:38:35.211Z,157.50
2018-06-16T04:39:35.272Z,157.50
2018-06-16T04:40:35.310Z,135.00
2018-06-16T04:41:35.307Z,157.50
2018-06-16T04:42:35.352Z,135.00
2018-06-16T04:43:35.278Z,135.00
2018-06-16T04:44:35.288Z,157.50
2018-06-16T04:45:35.368Z,135.00
2018-06-16T04:46:35.237Z,157.50
2018-06-16T04:47:35.336Z,157.50
2018-06-16T04:48:35.320Z,112.50
2018-06-16T04:49:35.311Z,112.50
2018-06-16T04:50:35.220Z,157.50
2018-06-16T04:51:35.236Z,135.00
2018-06-16T04:52:35.316Z,112.50
2018-06-16T04:53:35.323Z,90.00
2018-06-16T04:54:35.305Z,112.50
2018-06-16T04:55:35.226Z,90.00
2018-06-16T04:56:35.309Z,90.00
2018-06-16T04:57:35.270Z,90.00
2018-06-16T04:58:35.270Z,135.00
2018-06-16T04:59:35.306Z,112.50
2018-06-16T05:00:35.207Z,90.00
2018-06-16T05:01:35.259Z,90.00
2018-06-16T05:02:35.333Z,90.00
2018-06-16T05:03:35.225Z,67.50
2018-06-16T05:04:35.343Z,135.00
2018-06-16T05:05:35.295Z,135.00
2018-06-16T05:06:35.306Z,157.50
2018-06-16T05:07:35.308Z,135.00
2018-06-16T05:08:35.411Z,157.50
2018-06-16T05:09:35.303Z,157.50
2018-06-16T05:10:35.364Z,157.50
2018-06-16T05:11:35.309Z,157.50
2018-06-16T05:12:35.308Z,157.50
2018-06-16T05:13:35.308Z,135.00
2018-06-16T05:14:35.356Z,157.50
2018-06-16T05:15:35.353Z,157.50
2018-06-16T05:16:35.311Z,157.50
2018-06-16T05:17:35.363Z,112.50
2018-06-16T05:18:35.333Z,157.50
2018-06-16T05:19:35.252Z,157.50
2018-06-16T05:20:35.306Z,135.00
2018-06-16T05:21:35.363Z,135.00
2018-06-16T05:22:35.255Z,112.50
2018-06-16T05:23:35.409Z,112.50
2018-06-16T05:24:35.366Z,112.50
2018-06-16T05:25:35.243Z,90.00
2018-06-16T05:26:35.322Z,135.00
2018-06-16T05:27:35.339Z,112.50
2018-06-16T05:28:35.207Z,90.00
2018-06-16T05:29:35.373Z,112.50
2018-06-16T05:30:35.337Z,135.00
2018-06-16T05:31:35.280Z,90.00
2018-06-16T05:32:35.338Z,135.00
2018-06-16T05:33:35.264Z,135.00
2018-06-16T05:34:35.212Z,90.00
2018-06-16T05:35:35.257Z,112.50
2018-06-16T05:36:35.234Z,112.50
2018-06-16T05:37:35.232Z,135.00
2018-06-16T05:38:35.335Z,112.50
2018-06-16T05:39:35.242Z,135.00
2018-06-16T05:40:35.340Z,135.00
2018-06-16T05:41:35.345Z,135.00
2018-06-16T05:42:35.344Z,135.00
2018-06-16T05:43:35.305Z,157.50
2018-06-16T05:44:35.257Z,157.50
2018-06-16T05:45:35.197Z,135.00
2018-06-16T05:46:35.146Z,112.50
2018-06-16T05:47:35.146Z,112.50
2018-06-16T05:48:35.144Z,90.00
2018-06-16T05:49:35.145Z,112.50
2018-06-16T05:50:35.143Z,90.00
2018-06-16T05:51:35.231Z,90.00
2018-06-16T05:52:35.146Z,90.00
2018-06-16T05:53:35.247Z,90.00
2018-06-16T05:54:35.150Z,90.00
2018-06-16T05:55:35.378Z,90.00
2018-06-16T05:56:35.357Z,90.00
2018-06-16T05:57:35.298Z,90.00
2018-06-16T05:58:35.358Z,90.00
2018-06-16T05:59:35.258Z,90.00
2018-06-16T06:00:35.385Z,90.00
2018-06-16T06:01:35.396Z,90.00
2018-06-16T06:02:35.280Z,90.00
2018-06-16T06:03:35.272Z,90.00
2018-06-16T06:04:35.329Z,135.00
2018-06-16T06:05:35.361Z,90.00
2018-06-16T06:06:35.294Z,90.00
2018-06-16T06:07:35.311Z,112.50
2018-06-16T06:08:35.324Z,90.00
2018-06-16T06:09:35.297Z,112.50
2018-06-16T06:10:35.381Z,112.50
2018-06-16T06:11:35.389Z,112.50
2018-06-16T06:12:35.372Z,157.50
2018-06-16T06:13:35.304Z,112.50
2018-06-16T06:14:35.302Z,112.50
2018-06-16T06:15:35.412Z,112.50
2018-06-16T06:16:35.407Z,112.50
2018-06-16T06:17:35.271Z,135.00
2018-06-16T06:18:35.456Z,90.00
2018-06-16T06:19:35.273Z,157.50
2018-06-16T06:20:35.401Z,157.50
2018-06-16T06:21:35.274Z,112.50
2018-06-16T06:22:35.378Z,90.00
2018-06-16T06:23:35.283Z,90.00
2018-06-16T06:24:35.375Z,112.50
2018-06-16T06:25:35.389Z,90.00
2018-06-16T06:26:35.397Z,112.50
2018-06-16T06:27:35.423Z,112.50
2018-06-16T06:28:35.280Z,112.50
2018-06-16T06:29:35.409Z,157.50
2018-06-16T06:30:35.417Z,112.50
2018-06-16T06:31:35.400Z,135.00
2018-06-16T06:32:35.353Z,135.00
2018-06-16T06:33:35.379Z,90.00
2018-06-16T06:34:35.356Z,135.00
2018-06-16T06:35:35.407Z,157.50
2018-06-16T06:36:35.325Z,90.00
2018-06-16T06:37:35.412Z,112.50
2018-06-16T06:38:35.389Z,112.50
2018-06-16T06:39:35.412Z,90.00
2018-06-16T06:40:35.418Z,157.50
2018-06-16T06:41:35.349Z,135.00
2018-06-16T06:42:35.323Z,135.00
2018-06-16T06:43:35.426Z,112.50
2018-06-16T06:44:35.370Z,90.00
2018-06-16T06:45:35.299Z,90.00
2018-06-16T06:46:35.314Z,90.00
2018-06-16T06:47:35.417Z,90.00
2018-06-16T06:48:35.333Z,90.00
2018-06-16T06:49:35.357Z,112.50
2018-06-16T06:50:35.414Z,90.00
2018-06-16T06:51:35.432Z,90.00
2018-06-16T06:52:35.338Z,135.00
2018-06-16T06:53:35.299Z,90.00
2018-06-16T06:54:35.430Z,90.00
2018-06-16T06:55:35.345Z,90.00
2018-06-16T06:56:35.268Z,90.00
2018-06-16T06:57:35.358Z,180.00
2018-06-16T06:58:35.328Z,135.00
2018-06-16T06:59:35.333Z,90.00
2018-06-16T07:00:35.295Z,90.00
2018-06-16T07:01:35.267Z,90.00
2018-06-16T07:02:35.289Z,112.50
2018-06-16T07:03:35.295Z,90.00
2018-06-16T07:04:35.384Z,112.50
2018-06-16T07:05:35.399Z,90.00
2018-06-16T07:06:35.342Z,90.00
2018-06-16T07:07:35.304Z,90.00
2018-06-16T07:08:35.423Z,90.00
2018-06-16T07:09:35.366Z,90.00
2018-06-16T07:10:35.422Z,90.00
2018-06-16T07:11:35.319Z,90.00
2018-06-16T07:12:35.344Z,112.50
2018-06-16T07:13:35.414Z,67.50
2018-06-16T07:14:35.311Z,135.00
2018-06-16T07:15:35.313Z,112.50
2018-06-16T07:16:35.411Z,135.00
2018-06-16T07:17:35.317Z,90.00
2018-06-16T07:18:35.339Z,157.50
2018-06-16T07:19:35.430Z,90.00
2018-06-16T07:20:35.377Z,67.50
2018-06-16T07:21:35.314Z,90.00
2018-06-16T07:22:35.435Z,90.00
2018-06-16T07:23:35.468Z,135.00
2018-06-16T07:24:35.336Z,90.00
2018-06-16T07:25:35.444Z,90.00
2018-06-16T07:26:35.437Z,90.00
2018-06-16T07:27:35.416Z,90.00
2018-06-16T07:28:35.230Z,112.50
2018-06-16T07:29:35.400Z,67.50
2018-06-16T07:30:35.453Z,112.50
2018-06-16T07:31:35.466Z,90.00
2018-06-16T07:32:35.402Z,90.00
2018-06-16T07:33:35.328Z,90.00
2018-06-16T07:34:35.454Z,90.00
2018-06-16T07:35:35.316Z,67.50
2018-06-16T07:36:35.400Z,90.00
2018-06-16T07:37:35.355Z,90.00
2018-06-16T07:38:35.401Z,112.50
2018-06-16T07:39:35.318Z,135.00
2018-06-16T07:40:35.386Z,112.50
2018-06-16T07:41:35.476Z,90.00
2018-06-16T07:42:35.293Z,112.50
2018-06-16T07:43:35.406Z,112.50
2018-06-16T07:44:35.323Z,90.00
2018-06-16T07:45:35.429Z,90.00
2018-06-16T07:46:35.365Z,90.00
2018-06-16T07:47:35.436Z,112.50
2018-06-16T07:48:35.469Z,157.50
2018-06-16T07:49:35.366Z,157.50
2018-06-16T07:50:35.432Z,180.00
2018-06-16T07:51:35.435Z,112.50
2018-06-16T07:52:35.461Z,90.00
2018-06-16T07:53:35.369Z,90.00
2018-06-16T07:54:35.437Z,112.50
2018-06-16T07:55:35.366Z,90.00
2018-06-16T07:56:35.382Z,135.00
2018-06-16T07:57:35.360Z,90.00
2018-06-16T07:58:35.384Z,90.00
2018-06-16T07:59:35.344Z,90.00
2018-06-16T08:00:35.431Z,90.00
2018-06-16T08:01:35.393Z,90.00
2018-06-16T08:02:35.369Z,90.00
2018-06-16T08:03:35.334Z,90.00
2018-06-16T08:04:35.393Z,112.50
2018-06-16T08:05:35.427Z,135.00
2018-06-16T08:06:35.439Z,112.50
2018-06-16T08:07:35.394Z,112.50
2018-06-16T08:08:35.378Z,135.00
2018-06-16T08:09:35.436Z,135.00
2018-06-16T08:10:35.352Z,135.00
2018-06-16T08:11:35.434Z,135.00
2018-06-16T08:12:35.435Z,157.50
2018-06-16T08:13:35.437Z,112.50
2018-06-16T08:14:35.369Z,112.50
2018-06-16T08:15:35.412Z,90.00
2018-06-16T08:16:35.533Z,157.50
2018-06-16T08:17:35.483Z,112.50
2018-06-16T08:18:35.420Z,90.00
2018-06-16T08:19:35.479Z,90.00
2018-06-16T08:20:35.425Z,112.50
2018-06-16T08:21:35.491Z,112.50
2018-06-16T08:22:35.479Z,67.50
2018-06-16T08:23:35.487Z,157.50
2018-06-16T08:24:35.442Z,112.50
2018-06-16T08:25:35.362Z,112.50
2018-06-16T08:26:35.361Z,135.00
2018-06-16T08:27:35.366Z,90.00
2018-06-16T08:28:35.450Z,112.50
2018-06-16T08:29:35.446Z,135.00
2018-06-16T08:30:35.352Z,157.50
2018-06-16T08:31:35.335Z,135.00
2018-06-16T08:32:35.366Z,135.00
2018-06-16T08:33:35.367Z,135.00
2018-06-16T08:34:35.454Z,112.50
2018-06-16T08:35:35.413Z,67.50
2018-06-16T08:36:35.372Z,112.50
2018-06-16T08:37:35.406Z,112.50
2018-06-16T08:38:35.370Z,112.50
2018-06-16T08:39:35.323Z,67.50
2018-06-16T08:40:35.371Z,135.00
2018-06-16T08:41:35.369Z,90.00
2018-06-16T08:42:35.371Z,112.50
2018-06-16T08:43:35.410Z,112.50
2018-06-16T08:44:35.327Z,112.50
2018-06-16T08:45:35.432Z,157.50
2018-06-16T08:46:35.471Z,135.00
2018-06-16T08:47:35.438Z,157.50
2018-06-16T08:48:35.399Z,135.00
2018-06-16T08:49:35.445Z,157.50
2018-06-16T08:50:35.476Z,135.00
2018-06-16T08:51:35.437Z,90.00
2018-06-16T08:52:35.516Z,112.50
2018-06-16T08:53:35.396Z,135.00
2018-06-16T08:54:35.380Z,112.50
2018-06-16T08:55:35.562Z,90.00
2018-06-16T08:56:35.506Z,67.50
2018-06-16T08:57:35.509Z,112.50
2018-06-16T08:58:35.475Z,112.50
2018-06-16T08:59:35.459Z,67.50
2018-06-16T09:00:35.419Z,90.00
2018-06-16T09:01:35.488Z,90.00
2018-06-16T09:02:35.459Z,112.50
2018-06-16T09:03:35.503Z,180.00
2018-06-16T09:04:35.402Z,112.50
2018-06-16T09:05:35.454Z,135.00
2018-06-16T09:06:35.481Z,135.00
2018-06-16T09:07:35.483Z,180.00
2018-06-16T09:08:35.501Z,135.00
2018-06-16T09:09:35.484Z,90.00
2018-06-16T09:10:35.484Z,112.50
2018-06-16T09:11:35.456Z,112.50
2018-06-16T09:12:35.422Z,90.00
2018-06-16T09:13:35.487Z,157.50
2018-06-16T09:14:35.423Z,90.00
2018-06-16T09:15:35.483Z,157.50
2018-06-16T09:16:35.400Z,180.00
2018-06-16T09:17:35.493Z,202.50
2018-06-16T09:18:35.427Z,90.00
2018-06-16T09:19:35.425Z,135.00
2018-06-16T09:20:35.482Z,135.00
2018-06-16T09:21:35.475Z,135.00
2018-06-16T09:22:35.507Z,135.00
2018-06-16T09:23:35.370Z,135.00
2018-06-16T09:24:35.363Z,112.50
2018-06-16T09:25:35.498Z,135.00
2018-06-16T09:26:35.429Z,135.00
2018-06-16T09:27:35.499Z,157.50
2018-06-16T09:28:35.499Z,225.00
2018-06-16T09:29:35.428Z,157.50
2018-06-16T09:30:35.465Z,157.50
2018-06-16T09:31:35.431Z,180.00
2018-06-16T09:32:35.391Z,202.50
2018-06-16T09:33:35.432Z,157.50
2018-06-16T09:34:35.504Z,180.00
2018-06-16T09:35:35.481Z,135.00
2018-06-16T09:36:35.457Z,135.00
2018-06-16T09:37:35.503Z,157.50
2018-06-16T09:38:35.427Z,112.50
2018-06-16T09:39:35.509Z,157.50
2018-06-16T09:40:35.505Z,180.00
2018-06-16T09:41:35.524Z,180.00
2018-06-16T09:42:35.530Z,180.00
2018-06-16T09:43:35.486Z,180.00
2018-06-16T09:44:35.415Z,135.00
2018-06-16T09:45:35.508Z,135.00
2018-06-16T09:46:35.422Z,135.00
2018-06-16T09:47:35.445Z,180.00
2018-06-16T09:48:35.436Z,135.00
2018-06-16T09:49:35.440Z,202.50
2018-06-16T09:50:35.414Z,157.50
2018-06-16T09:51:35.465Z,180.00
2018-06-16T09:52:35.508Z,157.50
2018-06-16T09:53:35.504Z,157.50
2018-06-16T09:54:35.537Z,135.00
2018-06-16T09:55:35.436Z,157.50
2018-06-16T09:56:35.544Z,202.50
2018-06-16T09:57:35.584Z,202.50
2018-06-16T09:58:35.506Z,180.00
2018-06-16T09:59:35.497Z,157.50
2018-06-16T10:00:35.477Z,180.00
2018-06-16T10:01:35.476Z,180.00
2018-06-16T10:02:35.485Z,135.00
2018-06-16T10:03:35.421Z,202.50
2018-06-16T10:04:35.465Z,135.00
2018-06-16T10:05:35.453Z,135.00
2018-06-16T10:06:35.455Z,180.00
2018-06-16T10:07:35.522Z,135.00
2018-06-16T10:08:35.525Z,180.00
2018-06-16T10:09:35.491Z,202.50
2018-06-16T10:10:35.460Z,202.50
2018-06-16T10:11:35.528Z,180.00
2018-06-16T10:12:35.525Z,180.00
2018-06-16T10:13:35.466Z,157.50
2018-06-16T10:14:35.532Z,135.00
2018-06-16T10:15:35.552Z,157.50
2018-06-16T10:16:35.528Z,180.00
2018-06-16T10:17:35.556Z,157.50
2018-06-16T10:18:35.489Z,90.00
2018-06-16T10:19:35.563Z,112.50
2018-06-16T10:20:35.438Z,90.00
2018-06-16T10:21:35.459Z,112.50
2018-06-16T10:22:35.433Z,112.50
2018-06-16T10:23:35.516Z,135.00
2018-06-16T10:24:35.536Z,112.50
2018-06-16T10:25:35.548Z,112.50
2018-06-16T10:26:35.535Z,112.50
2018-06-16T10:27:35.489Z,135.00
2018-06-16T10:28:35.542Z,112.50
2018-06-16T10:29:35.536Z,180.00
2018-06-16T10:30:35.475Z,90.00
2018-06-16T10:31:35.541Z,180.00
2018-06-16T10:32:35.474Z,202.50
2018-06-16T10:33:35.443Z,157.50
2018-06-16T10:34:35.544Z,135.00
2018-06-16T10:35:35.479Z,90.00
2018-06-16T10:36:35.475Z,180.00
2018-06-16T10:37:35.477Z,112.50
2018-06-16T10:38:35.535Z,112.50
2018-06-16T10:39:35.533Z,90.00
2018-06-16T10:40:35.434Z,180.00
2018-06-16T10:41:35.537Z,180.00
2018-06-16T10:42:35.545Z,180.00
2018-06-16T10:43:35.544Z,225.00
2018-06-16T10:44:35.500Z,202.50
2018-06-16T10:45:35.481Z,157.50
2018-06-16T10:46:35.548Z,157.50
2018-06-16T10:47:35.550Z,157.50
2018-06-16T10:48:35.549Z,90.00
2018-06-16T10:49:35.493Z,112.50
2018-06-16T10:50:35.566Z,112.50
2018-06-16T10:51:35.490Z,157.50
2018-06-16T10:52:35.554Z,112.50
2018-06-16T10:53:35.557Z,112.50
2018-06-16T10:54:35.485Z,90.00
2018-06-16T10:55:35.560Z,135.00
2018-06-16T10:56:35.490Z,135.00
2018-06-16T10:57:35.581Z,135.00
2018-06-16T10:58:35.490Z,157.50
2018-06-16T10:59:35.556Z,157.50
2018-06-16T11:00:35.561Z,112.50
2018-06-16T11:01:35.559Z,180.00
2018-06-16T11:02:35.565Z,157.50
2018-06-16T11:03:35.498Z,135.00
2018-06-16T11:04:35.495Z,135.00
2018-06-16T11:05:35.568Z,157.50
2018-06-16T11:06:35.560Z,157.50
2018-06-16T11:07:35.525Z,157.50
2018-06-16T11:08:35.534Z,157.50
2018-06-16T11:09:35.542Z,135.00
2018-06-16T11:10:35.504Z,157.50
2018-06-16T11:11:35.591Z,90.00
2018-06-16T11:12:35.583Z,135.00
2018-06-16T11:13:35.611Z,90.00
2018-06-16T11:14:35.527Z,90.00
2018-06-16T11:15:35.588Z,135.00
2018-06-16T11:16:35.474Z,157.50
2018-06-16T11:17:35.569Z,135.00
2018-06-16T11:18:35.505Z,90.00
2018-06-16T11:19:35.503Z,135.00
2018-06-16T11:20:35.482Z,135.00
2018-06-16T11:21:35.445Z,202.50
2018-06-16T11:22:35.478Z,180.00
2018-06-16T11:23:35.527Z,157.50
2018-06-16T11:24:35.440Z,135.00
2018-06-16T11:25:35.564Z,202.50
2018-06-16T11:26:35.576Z,202.50
2018-06-16T11:27:35.576Z,202.50
2018-06-16T11:28:35.547Z,157.50
2018-06-16T11:29:35.577Z,157.50
2018-06-16T11:30:35.562Z,135.00
2018-06-16T11:31:35.580Z,202.50
2018-06-16T11:32:35.583Z,180.00
2018-06-16T11:33:35.478Z,180.00
2018-06-16T11:34:35.658Z,202.50
2018-06-16T11:35:35.551Z,247.50
2018-06-16T11:36:35.472Z,225.00
2018-06-16T11:37:35.585Z,135.00
2018-06-16T11:38:35.519Z,180.00
2018-06-16T11:39:35.490Z,180.00
2018-06-16T11:40:35.577Z,202.50
2018-06-16T11:41:35.517Z,180.00
2018-06-16T11:42:35.482Z,180.00
2018-06-16T11:43:35.578Z,157.50
2018-06-16T11:44:35.577Z,135.00
2018-06-16T11:45:35.525Z,135.00
2018-06-16T11:46:35.524Z,112.50
2018-06-16T11:47:35.592Z,135.00
2018-06-16T11:48:35.593Z,135.00
2018-06-16T11:49:35.590Z,157.50
2018-06-16T11:50:35.596Z,202.50
2018-06-16T11:51:35.526Z,202.50
2018-06-16T11:52:35.528Z,202.50
2018-06-16T11:53:35.532Z,157.50
2018-06-16T11:54:35.530Z,157.50
2018-06-16T11:55:35.528Z,157.50
2018-06-16T11:56:35.549Z,157.50
2018-06-16T11:57:35.584Z,157.50
2018-06-16T11:58:35.494Z,157.50
2018-06-16T11:59:35.504Z,157.50
2018-06-16T12:00:35.560Z,180.00
2018-06-16T12:01:35.598Z,180.00
2018-06-16T12:02:35.524Z,180.00
2018-06-16T12:03:35.627Z,135.00
2018-06-16T12:04:35.622Z,157.50
2018-06-16T12:05:35.525Z,135.00
2018-06-16T12:06:35.513Z,180.00
2018-06-16T12:07:35.505Z,225.00
2018-06-16T12:08:35.531Z,135.00
2018-06-16T12:09:35.507Z,157.50
2018-06-16T12:10:35.561Z,270.00
2018-06-16T12:11:35.512Z,180.00
2018-06-16T12:12:35.554Z,202.50
2018-06-16T12:13:35.599Z,135.00
2018-06-16T12:14:35.499Z,225.00
2018-06-16T12:15:35.518Z,202.50
2018-06-16T12:16:35.636Z,157.50
2018-06-16T12:17:35.633Z,157.50
2018-06-16T12:18:35.638Z,112.50
2018-06-16T12:19:35.587Z,135.00
2018-06-16T12:20:35.642Z,202.50
2018-06-16T12:21:35.653Z,157.50
2018-06-16T12:22:35.570Z,180.00
2018-06-16T12:23:35.647Z,135.00
2018-06-16T12:24:35.552Z,180.00
2018-06-16T12:25:35.550Z,180.00
2018-06-16T12:26:35.615Z,180.00
2018-06-16T12:27:35.592Z,202.50
2018-06-16T12:28:35.616Z,225.00
2018-06-16T12:29:35.552Z,157.50
2018-06-16T12:30:35.576Z,157.50
2018-06-16T12:31:35.596Z,90.00
2018-06-16T12:32:35.649Z,135.00
2018-06-16T12:33:35.588Z,157.50
2018-06-16T12:34:35.539Z,90.00
2018-06-16T12:35:35.582Z,180.00
2018-06-16T12:36:35.650Z,180.00
2018-06-16T12:37:35.641Z,180.00